createdAt,value
2024-05-09T00:02:16.491Z,20.28
2024-05-09T00:04:43.506Z,20.24
2024-05-09T00:07:10.225Z,20.21
2024-05-09T00:09:37.737Z,20.18
2024-05-09T00:12:04.710Z,20.15
2024-05-09T00:14:31.563Z,20.20
2024-05-09T00:16:58.304Z,20.24
2024-05-09T00:19:25.123Z,20.30
2024-05-09T00:21:51.796Z,20.42
2024-05-09T00:24:18.487Z,20.47
2024-05-09T00:26:45.101Z,20.54
2024-05-09T00:29:11.818Z,20.56
2024-05-09T00:31:38.541Z,20.58
2024-05-09T00:34:05.443Z,20.66
2024-05-09T00:36:32.397Z,20.70
2024-05-09T00:38:59.060Z,20.71
2024-05-09T00:41:25.812Z,20.72
2024-05-09T00:43:52.522Z,20.71
2024-05-09T00:46:19.274Z,20.74
2024-05-09T00:48:45.969Z,20.71
2024-05-09T00:51:12.863Z,20.67
2024-05-09T00:53:40.062Z,20.65
2024-05-09T00:56:07.802Z,20.63
2024-05-09T00:58:34.644Z,20.60
2024-05-09T01:01:01.826Z,20.57
2024-05-09T01:03:28.696Z,20.52
2024-05-09T01:05:55.722Z,20.50
2024-05-09T01:08:22.592Z,20.52
2024-05-09T01:10:49.487Z,20.53
2024-05-09T01:13:16.337Z,20.47
2024-05-09T01:15:43.312Z,20.45
2024-05-09T01:18:12.136Z,20.45
2024-05-09T01:20:43.202Z,20.45
2024-05-09T01:23:14.198Z,20.46
2024-05-09T01:25:42.523Z,20.44
2024-05-09T01:28:09.194Z,20.40
2024-05-09T01:30:37.533Z,20.36
2024-05-09T01:33:09.914Z,20.35
2024-05-09T01:35:39.213Z,20.32
2024-05-09T01:38:06.860Z,20.27
2024-05-09T01:40:38.502Z,20.30
2024-05-09T01:43:07.822Z,20.36
2024-05-09T01:45:34.863Z,20.39
2024-05-09T01:48:02.413Z,20.37
2024-05-09T01:50:37.872Z,20.33
2024-05-09T01:53:09.032Z,20.28
2024-05-09T01:55:35.823Z,20.27
2024-05-09T01:58:02.517Z,20.27
2024-05-09T02:00:38.167Z,20.24
2024-05-09T02:03:10.220Z,20.18
2024-05-09T02:05:37.889Z,20.18
2024-05-09T02:08:05.713Z,20.14
2024-05-09T02:10:33.448Z,20.10
2024-05-09T02:13:00.667Z,20.04
2024-05-09T02:15:27.315Z,20.00
2024-05-09T02:17:54.338Z,19.97
2024-05-09T02:20:30.220Z,19.95
2024-05-09T02:23:04.263Z,19.92
2024-05-09T02:25:31.662Z,19.92
2024-05-09T02:27:58.408Z,19.96
2024-05-09T02:30:35.043Z,20.01
2024-05-09T02:33:06.485Z,20.00
2024-05-09T02:35:33.664Z,19.96
2024-05-09T02:38:00.601Z,19.93
2024-05-09T02:40:35.705Z,19.90
2024-05-09T02:43:05.374Z,19.90
2024-05-09T02:45:32.246Z,19.90
2024-05-09T02:47:59.224Z,19.89
2024-05-09T02:50:34.250Z,19.87
2024-05-09T02:53:05.976Z,19.83
2024-05-09T02:55:33.070Z,19.81
2024-05-09T02:57:59.977Z,19.77
2024-05-09T03:00:35.074Z,19.72
2024-05-09T03:03:14.680Z,19.66
2024-05-09T03:05:45.701Z,19.63
2024-05-09T03:08:12.937Z,19.61
2024-05-09T03:10:39.998Z,19.64
2024-05-09T03:13:15.440Z,19.67
2024-05-09T03:15:43.628Z,19.69
2024-05-09T03:18:13.751Z,19.69
2024-05-09T03:20:40.890Z,19.68
2024-05-09T03:23:09.231Z,19.65
2024-05-09T03:25:36.984Z,19.64
2024-05-09T03:28:06.828Z,19.63
2024-05-09T03:30:40.846Z,19.60
2024-05-09T03:33:19.374Z,19.62
2024-05-09T03:35:48.362Z,19.63
2024-05-09T03:38:15.698Z,19.60
2024-05-09T03:40:46.804Z,19.58
2024-05-09T03:43:14.164Z,19.55
2024-05-09T03:45:42.164Z,19.52
2024-05-09T03:48:09.127Z,19.48
2024-05-09T03:50:36.880Z,19.46
2024-05-09T03:53:04.641Z,19.44
2024-05-09T03:55:31.581Z,19.43
2024-05-09T03:57:58.226Z,19.44
2024-05-09T04:00:31.551Z,19.43
2024-05-09T04:03:06.398Z,19.42
2024-05-09T04:05:35.150Z,19.40
2024-05-09T04:08:02.365Z,19.45
2024-05-09T04:10:33.618Z,19.48
2024-05-09T04:13:02.043Z,19.48
2024-05-09T04:15:28.955Z,19.45
2024-05-09T04:17:56.105Z,19.46
2024-05-09T04:20:33.605Z,19.51
2024-05-09T04:23:06.260Z,19.56
2024-05-09T04:25:33.389Z,19.59
2024-05-09T04:28:00.185Z,19.67
2024-05-09T04:30:36.046Z,19.78
2024-05-09T04:33:07.694Z,19.83
2024-05-09T04:35:36.092Z,19.84
2024-05-09T04:38:02.973Z,19.84
2024-05-09T04:40:34.160Z,19.86
2024-05-09T04:43:04.077Z,19.89
2024-05-09T04:45:30.844Z,19.93
2024-05-09T04:47:58.095Z,20.03
2024-05-09T04:50:33.392Z,20.19
2024-05-09T04:53:04.371Z,20.35
2024-05-09T04:55:31.715Z,20.47
2024-05-09T04:57:58.491Z,20.62
2024-05-09T05:00:34.164Z,20.72
2024-05-09T05:03:09.323Z,20.79
2024-05-09T05:05:41.037Z,20.93
2024-05-09T05:08:15.130Z,20.95
2024-05-09T05:10:42.906Z,20.96
2024-05-09T05:13:23.959Z,21.01
2024-05-09T05:15:57.337Z,21.03
2024-05-09T05:18:26.233Z,21.06
2024-05-09T05:20:54.589Z,21.13
2024-05-09T05:23:22.249Z,21.19
2024-05-09T05:25:50.180Z,21.23
2024-05-09T05:28:17.455Z,21.25
2024-05-09T05:30:44.618Z,21.31
2024-05-09T05:33:13.628Z,21.29
2024-05-09T05:35:41.323Z,21.25
2024-05-09T05:38:09.014Z,21.27
2024-05-09T05:40:38.420Z,21.31
2024-05-09T05:43:07.435Z,21.33
2024-05-09T05:45:34.127Z,21.34
2024-05-09T05:48:04.040Z,21.30
2024-05-09T05:50:35.883Z,21.26
2024-05-09T05:53:09.719Z,21.22
2024-05-09T05:55:39.070Z,21.23
2024-05-09T05:58:08.297Z,21.27
2024-05-09T06:00:38.556Z,21.29
2024-05-09T06:03:08.283Z,21.32
2024-05-09T06:05:36.348Z,21.40
2024-05-09T06:08:03.126Z,21.48
2024-05-09T06:10:37.546Z,21.51
2024-05-09T06:13:07.236Z,21.55
2024-05-09T06:15:34.099Z,21.60
2024-05-09T06:18:01.054Z,21.62
2024-05-09T06:20:35.446Z,21.62
2024-05-09T06:23:07.576Z,21.63
2024-05-09T06:25:35.300Z,21.61
2024-05-09T06:28:02.588Z,21.60
2024-05-09T06:30:37.850Z,21.54
2024-05-09T06:33:08.747Z,21.53
2024-05-09T06:35:36.358Z,21.57
2024-05-09T06:38:03.248Z,21.64
2024-05-09T06:40:37.140Z,21.69
2024-05-09T06:43:11.051Z,21.77
2024-05-09T06:45:39.678Z,21.82
2024-05-09T06:48:07.570Z,21.87
2024-05-09T06:50:37.961Z,21.95
2024-05-09T06:53:06.313Z,21.98
2024-05-09T06:55:33.152Z,21.98
2024-05-09T06:57:59.818Z,22.03
2024-05-09T07:00:34.641Z,22.13
2024-05-09T07:03:18.298Z,22.18
2024-05-09T07:05:47.668Z,22.12
2024-05-09T07:08:15.935Z,22.09
2024-05-09T07:10:42.906Z,22.11
2024-05-09T07:13:10.630Z,22.13
2024-05-09T07:15:37.608Z,22.21
2024-05-09T07:18:11.799Z,22.26
2024-05-09T07:20:40.011Z,22.25
2024-05-09T07:23:10.811Z,22.21
2024-05-09T07:25:38.395Z,22.29
2024-05-09T07:28:05.525Z,22.35
2024-05-09T07:30:34.451Z,22.37
2024-05-09T07:33:02.933Z,22.46
2024-05-09T07:35:30.778Z,22.58
2024-05-09T07:37:57.817Z,22.54
2024-05-09T07:40:33.044Z,22.46
2024-05-09T07:43:11.769Z,22.46
2024-05-09T07:45:48.601Z,22.46
2024-05-09T07:53:38.572Z,22.26
2024-05-09T07:56:07.513Z,22.30
2024-05-09T07:58:34.749Z,22.47
2024-05-09T08:01:02.884Z,22.58
2024-05-09T08:03:29.805Z,22.55
2024-05-09T08:05:56.648Z,22.52
2024-05-09T08:08:23.480Z,22.52
2024-05-09T08:10:50.975Z,22.53
2024-05-09T08:13:17.916Z,22.62
2024-05-09T08:15:44.931Z,22.66
2024-05-09T08:18:11.984Z,22.66
2024-05-09T08:20:39.938Z,22.67
2024-05-09T08:23:07.092Z,22.74
2024-05-09T08:25:33.736Z,22.68
2024-05-09T08:28:00.593Z,22.71
2024-05-09T08:30:33.633Z,22.72
2024-05-09T08:33:05.108Z,22.81
2024-05-09T08:35:33.014Z,22.89
2024-05-09T08:37:59.821Z,22.88
2024-05-09T08:40:33.737Z,22.84
2024-05-09T08:43:03.176Z,22.87
2024-05-09T08:45:30.914Z,22.87
2024-05-09T08:47:59.624Z,22.86
2024-05-09T08:50:32.520Z,22.86
2024-05-09T08:53:05.686Z,22.82
2024-05-09T08:55:32.764Z,22.83
2024-05-09T08:58:01.279Z,22.88
2024-05-09T09:00:35.940Z,22.85
2024-05-09T09:03:06.156Z,22.84
2024-05-09T09:05:34.139Z,22.87
2024-05-09T09:08:04.798Z,23.02
2024-05-09T09:10:32.860Z,23.08
2024-05-09T09:13:09.438Z,23.09
2024-05-09T09:15:49.839Z,23.11
2024-05-09T09:18:17.469Z,23.09
2024-05-09T09:20:44.790Z,23.14
2024-05-09T09:23:11.569Z,23.18
2024-05-09T09:25:41.172Z,23.22
2024-05-09T09:28:08.709Z,23.25
2024-05-09T09:30:41.316Z,23.30
2024-05-09T09:33:09.077Z,23.30
2024-05-09T09:35:36.313Z,23.25
2024-05-09T09:38:04.491Z,23.17
2024-05-09T09:40:37.162Z,23.15
2024-05-09T09:43:14.198Z,23.07
2024-05-09T09:45:42.046Z,23.06
2024-05-09T09:48:10.462Z,23.14
2024-05-09T09:50:37.755Z,23.20
2024-05-09T09:53:05.156Z,23.26
2024-05-09T09:55:32.636Z,23.34
2024-05-09T09:57:59.904Z,23.33
2024-05-09T10:00:32.531Z,23.43
2024-05-09T10:03:02.390Z,23.55
2024-05-09T10:05:30.304Z,23.60
2024-05-09T10:07:57.911Z,23.51
2024-05-09T10:10:31.878Z,23.48
2024-05-09T10:13:00.744Z,23.48
2024-05-09T10:15:27.939Z,23.47
2024-05-09T10:17:55.006Z,23.54
2024-05-09T10:20:28.030Z,23.66
2024-05-09T10:22:58.890Z,23.80
2024-05-09T10:25:26.929Z,23.84
2024-05-09T10:27:56.462Z,23.79
2024-05-09T10:30:34.073Z,23.80
2024-05-09T10:33:03.089Z,23.76
2024-05-09T10:35:31.472Z,23.68
2024-05-09T10:38:05.804Z,23.76
2024-05-09T10:40:32.881Z,23.77
2024-05-09T10:43:02.566Z,23.74
2024-05-09T10:45:31.978Z,23.70
2024-05-09T10:47:58.952Z,23.63
2024-05-09T10:50:29.201Z,23.59
2024-05-09T10:53:00.618Z,23.55
2024-05-09T10:55:27.611Z,23.60
2024-05-09T10:57:54.543Z,23.62
2024-05-09T11:00:27.689Z,23.57
2024-05-09T11:03:00.310Z,23.61
2024-05-09T11:05:27.519Z,23.67
2024-05-09T11:07:55.070Z,23.64
2024-05-09T11:10:27.755Z,23.57
2024-05-09T11:13:00.350Z,23.62
2024-05-09T11:15:40.223Z,23.69
2024-05-09T11:18:07.532Z,23.77
2024-05-09T11:20:35.762Z,23.82
2024-05-09T11:23:08.692Z,23.64
2024-05-09T11:25:35.418Z,23.50
2024-05-09T11:28:04.853Z,23.35
2024-05-09T11:30:35.329Z,23.39
2024-05-09T11:33:02.103Z,23.62
2024-05-09T11:35:29.475Z,23.86
2024-05-09T11:37:56.226Z,23.95
2024-05-09T11:40:25.870Z,23.85
2024-05-09T11:42:59.248Z,23.63
2024-05-09T11:45:25.971Z,23.49
2024-05-09T11:47:53.310Z,23.39
2024-05-09T11:50:27.130Z,23.31
2024-05-09T11:52:57.152Z,23.26
2024-05-09T11:55:27.756Z,23.22
2024-05-09T11:57:55.838Z,23.22
2024-05-09T12:00:29.761Z,23.23
2024-05-09T12:03:05.176Z,23.17
2024-05-09T12:05:33.139Z,22.94
2024-05-09T12:08:00.792Z,22.86
2024-05-09T12:10:33.180Z,22.86
2024-05-09T12:13:03.796Z,22.95
2024-05-09T12:15:32.186Z,23.07
2024-05-09T12:18:02.541Z,23.18
2024-05-09T12:20:36.580Z,23.37
2024-05-09T12:23:06.059Z,23.51
2024-05-09T12:25:32.993Z,23.54
2024-05-09T12:28:00.152Z,23.59
2024-05-09T12:30:35.474Z,23.56
2024-05-09T12:35:32.858Z,23.37
2024-05-09T12:38:00.336Z,23.30
2024-05-09T12:40:35.425Z,23.33
2024-05-09T12:43:06.146Z,23.33
2024-05-09T12:45:33.300Z,23.18
2024-05-09T12:48:00.372Z,23.08
2024-05-09T12:50:32.508Z,23.11
2024-05-09T12:53:01.711Z,23.16
2024-05-09T12:55:33.472Z,23.16
2024-05-09T12:58:06.801Z,23.26
2024-05-09T13:00:34.463Z,23.26
2024-05-09T13:03:01.666Z,23.24
2024-05-09T13:05:29.223Z,23.17
2024-05-09T13:07:56.938Z,23.04
2024-05-09T13:10:31.179Z,22.94
2024-05-09T13:13:00.561Z,22.98
2024-05-09T13:15:27.779Z,23.10
2024-05-09T13:17:57.006Z,23.14
2024-05-09T13:20:31.787Z,23.16
2024-05-09T13:23:01.697Z,23.18
2024-05-09T13:25:28.473Z,23.15
2024-05-09T13:27:56.191Z,23.14
2024-05-09T13:30:29.734Z,23.14
2024-05-09T13:33:06.555Z,23.21
2024-05-09T13:35:35.524Z,23.21
2024-05-09T13:38:03.696Z,23.22
2024-05-09T13:40:34.464Z,23.24
2024-05-09T13:43:04.540Z,23.28
2024-05-09T13:45:31.667Z,23.30
2024-05-09T13:47:58.747Z,23.25
2024-05-09T13:50:33.267Z,23.25
2024-05-09T13:53:02.974Z,23.23
2024-05-09T13:55:29.718Z,23.23
2024-05-09T13:57:56.493Z,23.22
2024-05-09T14:00:37.718Z,23.14
2024-05-09T14:03:10.304Z,23.05
2024-05-09T14:05:37.181Z,22.99
2024-05-09T14:08:04.211Z,23.02
2024-05-09T14:10:32.047Z,23.12
2024-05-09T14:13:00.062Z,23.15
2024-05-09T14:15:27.009Z,23.16
2024-05-09T14:17:54.480Z,23.13
2024-05-09T14:20:30.333Z,23.06
2024-05-09T14:22:59.331Z,23.04
2024-05-09T14:25:28.575Z,22.97
2024-05-09T14:27:57.451Z,22.91
2024-05-09T14:30:31.016Z,22.83
2024-05-09T14:33:04.160Z,22.83
2024-05-09T14:35:30.999Z,22.86
2024-05-09T14:37:57.748Z,22.96
2024-05-09T14:40:36.198Z,23.07
2024-05-09T14:43:08.144Z,23.10
2024-05-09T14:45:35.332Z,23.18
2024-05-09T14:48:02.837Z,23.37
2024-05-09T14:50:35.859Z,23.51
2024-05-09T14:53:06.624Z,23.42
2024-05-09T14:55:39.314Z,23.25
2024-05-09T14:58:07.500Z,23.09
2024-05-09T15:00:47.749Z,22.94
2024-05-09T15:03:18.404Z,22.77
2024-05-09T15:05:45.377Z,22.64
2024-05-09T15:08:12.244Z,22.61
2024-05-09T15:10:39.295Z,22.61
2024-05-09T15:13:08.065Z,22.54
2024-05-09T15:15:36.762Z,22.53
2024-05-09T15:18:05.046Z,22.68
2024-05-09T15:20:35.968Z,22.89
2024-05-09T15:23:05.277Z,23.13
2024-05-09T15:25:36.170Z,23.21
2024-05-09T15:28:07.664Z,23.10
2024-05-09T15:30:35.296Z,22.95
2024-05-09T15:33:06.805Z,22.84
2024-05-09T15:35:34.688Z,22.78
2024-05-09T15:38:03.195Z,22.72
2024-05-09T15:40:37.679Z,22.74
2024-05-09T15:43:08.051Z,22.69
2024-05-09T15:45:35.707Z,22.84
2024-05-09T15:48:03.263Z,23.16
2024-05-09T15:50:37.141Z,23.41
2024-05-09T15:53:08.240Z,23.68
2024-05-09T15:55:36.001Z,23.85
2024-05-09T15:58:04.323Z,23.92
2024-05-09T16:00:38.718Z,23.97
2024-05-09T16:03:12.037Z,24.01
2024-05-09T16:05:41.035Z,24.07
2024-05-09T16:08:08.280Z,24.15
2024-05-09T16:10:36.075Z,24.18
2024-05-09T16:13:03.568Z,24.22
2024-05-09T16:15:30.964Z,24.20
2024-05-09T16:17:57.921Z,24.13
2024-05-09T16:20:34.419Z,24.00
2024-05-09T16:23:06.511Z,23.86
2024-05-09T16:25:33.472Z,23.73
2024-05-09T16:28:00.407Z,23.60
2024-05-09T16:30:34.186Z,23.48
2024-05-09T16:33:04.298Z,23.36
2024-05-09T16:35:31.899Z,23.38
2024-05-09T16:37:58.725Z,23.40
2024-05-09T16:40:34.427Z,23.38
2024-05-09T16:43:05.860Z,23.32
2024-05-09T16:45:33.441Z,23.39
2024-05-09T16:48:00.705Z,23.47
2024-05-09T16:50:32.635Z,23.45
2024-05-09T16:53:01.892Z,23.35
2024-05-09T16:55:28.877Z,23.22
2024-05-09T16:57:57.083Z,23.14
2024-05-09T17:00:35.152Z,23.11
2024-05-09T17:03:08.416Z,23.17
2024-05-09T17:05:35.995Z,23.23
2024-05-09T17:08:03.231Z,23.27
2024-05-09T17:10:33.581Z,23.33
2024-05-09T17:13:03.237Z,23.51
2024-05-09T17:15:31.029Z,23.72
2024-05-09T17:17:58.194Z,23.84
2024-05-09T17:20:31.886Z,23.91
2024-05-09T17:23:02.822Z,23.88
2024-05-09T17:25:29.691Z,23.85
2024-05-09T17:27:57.062Z,23.85
2024-05-09T17:30:32.073Z,23.90
2024-05-09T17:33:03.846Z,23.93
2024-05-09T17:35:31.711Z,23.79
2024-05-09T17:37:59.784Z,23.64
2024-05-09T17:40:32.751Z,23.58
2024-05-09T17:43:03.201Z,23.48
2024-05-09T17:45:30.355Z,23.35
2024-05-09T17:47:57.601Z,23.23
2024-05-09T17:50:31.437Z,23.10
2024-05-09T17:53:02.403Z,22.98
2024-05-09T17:55:29.352Z,22.88
2024-05-09T17:57:56.271Z,22.84
2024-05-09T18:00:33.242Z,22.85
2024-05-09T18:03:06.401Z,22.82
2024-05-09T18:05:34.749Z,22.78
2024-05-09T18:08:01.743Z,22.75
2024-05-09T18:10:35.237Z,22.70
2024-05-09T18:13:06.175Z,22.70
2024-05-09T18:15:33.608Z,22.71
2024-05-09T18:18:00.914Z,22.70
2024-05-09T18:20:37.717Z,22.65
2024-05-09T18:23:10.446Z,22.63
2024-05-09T18:25:37.340Z,22.65
2024-05-09T18:28:04.662Z,22.65
2024-05-09T18:30:35.143Z,22.63
2024-05-09T18:33:05.836Z,22.65
2024-05-09T18:35:34.360Z,22.65
2024-05-09T18:38:00.989Z,22.66
2024-05-09T18:40:33.315Z,22.61
2024-05-09T18:43:03.605Z,22.56
2024-05-09T18:45:30.874Z,22.56
2024-05-09T18:47:58.054Z,22.60
2024-05-09T18:50:32.516Z,22.61
2024-05-09T18:53:05.831Z,22.66
2024-05-09T18:55:32.779Z,22.74
2024-05-09T18:57:59.605Z,22.79
2024-05-09T19:00:33.784Z,22.84
2024-05-09T19:03:06.069Z,22.86
2024-05-09T19:05:35.044Z,22.83
2024-05-09T19:08:02.419Z,22.81
2024-05-09T19:10:34.043Z,22.77
2024-05-09T19:13:05.419Z,22.65
2024-05-09T19:15:35.754Z,22.49
2024-05-09T19:18:02.963Z,22.39
2024-05-09T19:20:34.346Z,22.37
2024-05-09T19:23:02.787Z,22.36
2024-05-09T19:25:29.649Z,22.34
2024-05-09T19:27:56.434Z,22.29
2024-05-09T19:30:30.467Z,22.16
2024-05-09T19:33:05.747Z,22.06
2024-05-09T19:35:32.672Z,22.02
2024-05-09T19:37:59.449Z,22.01
2024-05-09T19:40:31.346Z,22.05
2024-05-09T19:43:00.514Z,22.08
2024-05-09T19:45:27.299Z,22.08
2024-05-09T19:47:54.198Z,22.07
2024-05-09T19:50:27.147Z,22.04
2024-05-09T19:53:03.065Z,22.00
2024-05-09T19:55:29.924Z,22.00
2024-05-09T19:58:00.024Z,22.01
2024-05-09T20:00:32.968Z,22.02
2024-05-09T20:03:03.127Z,22.02
2024-05-09T20:05:33.356Z,22.00
2024-05-09T20:08:00.256Z,21.95
2024-05-09T20:10:31.998Z,21.90
2024-05-09T20:13:00.955Z,21.88
2024-05-09T20:15:27.757Z,21.87
2024-05-09T20:17:54.962Z,21.88
2024-05-09T20:22:51.976Z,21.84
2024-05-09T20:25:18.895Z,21.81
2024-05-09T20:27:45.724Z,21.79
2024-05-09T20:30:17.077Z,21.76
2024-05-09T20:32:48.180Z,21.74
2024-05-09T20:35:14.966Z,21.76
2024-05-09T20:37:41.593Z,21.75
2024-05-09T20:40:15.359Z,21.75
2024-05-09T20:42:45.414Z,21.74
2024-05-09T20:45:12.098Z,21.72
2024-05-09T20:47:38.991Z,21.69
2024-05-09T20:50:11.422Z,21.69
2024-05-09T20:52:43.040Z,21.69
2024-05-09T20:55:09.833Z,21.69
2024-05-09T20:57:36.609Z,21.67
2024-05-09T21:00:07.346Z,21.64
2024-05-09T21:02:38.294Z,21.59
2024-05-09T21:07:31.854Z,21.53
2024-05-09T21:09:58.601Z,21.51
2024-05-09T21:12:25.329Z,21.47
2024-05-09T21:14:51.994Z,21.45
2024-05-09T21:17:18.744Z,21.43
2024-05-09T21:19:45.483Z,21.38
2024-05-09T21:22:12.174Z,21.35
2024-05-09T21:24:38.930Z,21.33
2024-05-09T21:27:05.626Z,21.31
2024-05-09T21:29:32.279Z,21.28
2024-05-09T21:31:58.975Z,21.26
2024-05-09T21:34:25.777Z,21.23
2024-05-09T21:36:52.569Z,21.20
2024-05-09T21:39:19.504Z,21.20
2024-05-09T21:41:46.083Z,21.18
2024-05-09T21:44:12.704Z,21.16
2024-05-09T21:46:39.390Z,21.14
2024-05-09T21:49:06.132Z,21.11
2024-05-09T21:51:32.838Z,21.08
2024-05-09T21:53:59.596Z,21.05
2024-05-09T21:56:26.302Z,21.04
2024-05-09T21:58:52.896Z,21.03
2024-05-09T22:01:19.679Z,21.02
2024-05-09T22:03:46.510Z,21.01
2024-05-09T22:06:13.242Z,21.01
2024-05-09T22:08:39.878Z,20.98
2024-05-09T22:11:06.556Z,20.96
2024-05-09T22:13:33.301Z,20.93
2024-05-09T22:15:59.970Z,20.88
2024-05-09T22:18:26.798Z,20.82
2024-05-09T22:20:54.776Z,20.75
2024-05-09T22:23:21.689Z,20.70
2024-05-09T22:25:48.312Z,20.63
2024-05-09T22:28:16.011Z,20.60
2024-05-09T22:30:44.101Z,20.55
2024-05-09T22:33:12.126Z,20.53
2024-05-09T22:35:40.369Z,20.51
2024-05-09T22:38:07.418Z,20.47
2024-05-09T22:40:44.793Z,20.44
2024-05-09T22:43:19.961Z,20.43
2024-05-09T22:45:47.402Z,20.40
2024-05-09T22:48:14.290Z,20.41
2024-05-09T22:50:41.212Z,20.41
2024-05-09T22:53:07.981Z,20.37
2024-05-09T22:55:34.655Z,20.33
2024-05-09T22:58:01.415Z,20.31
2024-05-09T23:00:31.783Z,20.27
2024-05-09T23:03:03.310Z,20.22
2024-05-09T23:05:32.093Z,20.18
2024-05-09T23:07:59.010Z,20.17
2024-05-09T23:10:32.342Z,20.17
2024-05-09T23:13:03.587Z,20.16
2024-05-09T23:15:30.565Z,20.12
2024-05-09T23:17:58.133Z,20.04
2024-05-09T23:20:33.800Z,20.01
2024-05-09T23:23:08.757Z,19.97
2024-05-09T23:25:37.057Z,19.94
2024-05-09T23:28:04.504Z,19.92
2024-05-09T23:30:37.588Z,19.93
2024-05-09T23:33:07.719Z,19.91
2024-05-09T23:35:34.716Z,19.91
2024-05-09T23:38:01.397Z,19.90
2024-05-09T23:40:37.567Z,19.89
2024-05-09T23:43:07.844Z,19.87
2024-05-09T23:45:35.094Z,19.86
2024-05-09T23:48:02.088Z,19.84
2024-05-09T23:52:58.476Z,19.85
2024-05-09T23:55:25.177Z,19.86
2024-05-09T23:57:52.016Z,19.88
